Terminal Aerodrome Forecast
Issued by NWS Paducah, KY

Home | Current Version | Previous Version | Text Only | Print | Product List | Glossary On
Versions: 1 2 3 4 5 6 7 8 9 10 11 12 13 14 15 16 17 18 19 20 21 22 23
360
FTUS43 KPAH 270520
TAFEVV
TAF
KEVV 270520Z 2706/2806 VRB03KT P6SM BKN250
     FM271300 12005KT 6SM -SHRA BKN050
      TEMPO 2713/2717 3SM TSRA BKN035CB
     FM271700 17009KT P6SM BKN035
     FM272100 19008KT P6SM VCTS BKN040CB
     FM280300 VRB03KT P6SM BKN035=

USA.gov is the U.S. government's official web portal to all federal, state and local government web resources and services.